createdAt,value
2023-03-18T00:02:03.221Z,99967.19
2023-03-18T00:04:30.610Z,99943.28
2023-03-18T00:06:58.943Z,99962.97
2023-03-18T00:09:26.549Z,99942.38
2023-03-18T00:11:55.237Z,99950.75
2023-03-18T00:14:22.553Z,99955.44
2023-03-18T00:16:49.698Z,99951.69
2023-03-18T00:19:17.891Z,99950.97
2023-03-18T00:21:44.826Z,99950.13
2023-03-18T00:24:12.517Z,99939.88
2023-03-18T00:26:39.409Z,99948.47
2023-03-18T00:29:06.572Z,99936.00
2023-03-18T00:31:33.889Z,99932.22
2023-03-18T00:34:01.084Z,99935.88
2023-03-18T00:36:28.113Z,99923.38
2023-03-18T00:38:59.757Z,99919.63
2023-03-18T00:41:33.205Z,99927.38
2023-03-18T00:44:00.419Z,99919.38
2023-03-18T00:46:37.662Z,99911.38
2023-03-18T00:49:07.157Z,99918.19
2023-03-18T00:51:37.654Z,99908.88
2023-03-18T00:54:07.538Z,99909.47
2023-03-18T00:56:36.860Z,99911.25
2023-03-18T00:59:05.174Z,99920.53
2023-03-18T01:01:33.072Z,99920.41
2023-03-18T01:04:00.985Z,99913.72
2023-03-18T01:06:31.414Z,99917.72
2023-03-18T01:08:59.185Z,99923.84
2023-03-18T01:11:26.512Z,99917.72
2023-03-18T01:13:54.283Z,99915.38
2023-03-18T01:16:22.269Z,99920.19
2023-03-18T01:18:49.590Z,99911.72
2023-03-18T01:21:18.161Z,99915.94
2023-03-18T01:23:53.464Z,99896.41
2023-03-18T01:26:20.888Z,99886.53
2023-03-18T01:28:48.225Z,99893.72
2023-03-18T01:31:15.905Z,99895.34
2023-03-18T01:33:46.263Z,99903.94
2023-03-18T01:36:13.894Z,99893.81
2023-03-18T01:38:42.687Z,99887.69
2023-03-18T01:41:14.707Z,99893.00
2023-03-18T01:43:43.117Z,99900.97
2023-03-18T01:46:33.800Z,99902.63
2023-03-18T01:49:05.192Z,99898.28
2023-03-18T01:51:32.494Z,99877.09
2023-03-18T01:54:03.343Z,99891.94
2023-03-18T01:56:30.624Z,99889.78
2023-03-18T01:58:59.917Z,99882.63
2023-03-18T02:01:42.054Z,99894.03
2023-03-18T02:04:10.981Z,99878.88
2023-03-18T02:06:41.159Z,99864.75
2023-03-18T02:09:09.551Z,99887.25
2023-03-18T02:11:45.898Z,99887.25
2023-03-18T02:14:18.014Z,99890.78
2023-03-18T02:16:51.301Z,99894.69
2023-03-18T02:19:55.051Z,99891.25
2023-03-18T02:22:39.718Z,99893.72
2023-03-18T02:25:24.759Z,99889.72
2023-03-18T02:27:59.265Z,99881.84
2023-03-18T02:30:34.240Z,99875.72
2023-03-18T02:33:03.337Z,99857.84
2023-03-18T02:35:32.303Z,99871.97
2023-03-18T02:38:01.086Z,99869.38
2023-03-18T02:40:33.393Z,99877.72
2023-03-18T02:43:25.254Z,99851.38
2023-03-18T02:46:14.615Z,99880.56
2023-03-18T02:48:45.269Z,99876.31
2023-03-18T02:51:15.017Z,99876.22
2023-03-18T02:53:42.920Z,99879.84
2023-03-18T02:56:10.918Z,99878.44
2023-03-18T02:58:40.745Z,99875.97
2023-03-18T03:01:08.415Z,99873.97
2023-03-18T03:03:37.160Z,99892.81
2023-03-18T03:06:04.588Z,99868.66
2023-03-18T03:08:31.957Z,99883.03
2023-03-18T03:10:58.849Z,99882.22
2023-03-18T03:13:28.000Z,99880.44
2023-03-18T03:15:55.958Z,99873.50
2023-03-18T03:18:23.266Z,99880.56
2023-03-18T03:20:51.187Z,99886.09
2023-03-18T03:23:21.194Z,99887.97
2023-03-18T03:25:49.562Z,99885.50
2023-03-18T03:28:17.308Z,99875.97
2023-03-18T03:30:44.528Z,99862.44
2023-03-18T03:33:12.175Z,99891.16
2023-03-18T03:35:41.694Z,99891.03
2023-03-18T03:38:09.593Z,99884.31
2023-03-18T03:40:37.565Z,99879.72
2023-03-18T03:43:05.674Z,99880.31
2023-03-18T03:45:33.701Z,99876.44
2023-03-18T03:48:01.695Z,99876.69
2023-03-18T03:50:29.070Z,99881.63
2023-03-18T03:52:56.652Z,99876.09
2023-03-18T03:55:25.078Z,99875.16
2023-03-18T03:57:54.564Z,99890.09
2023-03-18T04:00:23.365Z,99883.84
2023-03-18T04:02:52.325Z,99890.91
2023-03-18T04:05:22.722Z,99885.38
2023-03-18T04:07:50.753Z,99891.97
2023-03-18T04:10:21.433Z,99889.03
2023-03-18T04:12:49.858Z,99880.09
2023-03-18T04:15:19.810Z,99873.50
2023-03-18T04:17:50.153Z,99899.28
2023-03-18T04:20:19.637Z,99901.16
2023-03-18T04:22:47.969Z,99895.97
2023-03-18T04:25:17.582Z,99889.59
2023-03-18T04:27:46.198Z,99907.94
2023-03-18T04:30:14.033Z,99909.59
2023-03-18T04:32:55.079Z,99905.25
2023-03-18T04:35:23.495Z,99897.47
2023-03-18T04:37:51.362Z,99912.31
2023-03-18T04:40:20.050Z,99908.53
2023-03-18T04:42:50.188Z,99907.81
2023-03-18T04:45:23.149Z,99918.28
2023-03-18T04:47:50.797Z,99917.34
2023-03-18T04:50:18.128Z,99904.63
2023-03-18T04:52:45.580Z,99914.13
2023-03-18T04:55:18.061Z,99911.53
2023-03-18T04:57:45.833Z,99915.31
2023-03-18T05:00:17.846Z,99922.59
2023-03-18T05:02:47.188Z,99904.38
2023-03-18T05:05:14.729Z,99920.16
2023-03-18T05:07:46.493Z,99916.25
2023-03-18T05:10:16.224Z,99915.53
2023-03-18T05:12:43.550Z,99940.19
2023-03-18T05:15:13.270Z,99944.03
2023-03-18T05:17:45.904Z,99932.94
2023-03-18T05:20:13.715Z,99947.25
2023-03-18T05:22:42.509Z,99943.09
2023-03-18T05:25:16.549Z,99940.25
2023-03-18T05:27:43.710Z,99949.78
2023-03-18T05:30:19.578Z,99956.34
2023-03-18T05:32:50.145Z,99954.97
2023-03-18T05:35:22.167Z,99960.34
2023-03-18T05:37:50.528Z,99946.44
2023-03-18T05:40:18.281Z,99950.78
2023-03-18T05:42:59.844Z,99957.38
2023-03-18T05:45:40.454Z,99952.19
2023-03-18T05:48:10.696Z,99946.94
2023-03-18T05:50:46.840Z,99949.16
2023-03-18T05:53:18.168Z,99970.47
2023-03-18T05:55:48.956Z,99978.38
2023-03-18T05:58:16.962Z,99974.84
2023-03-18T06:00:45.801Z,99967.16
2023-03-18T06:03:12.976Z,99950.72
2023-03-18T06:05:40.075Z,99972.50
2023-03-18T06:08:08.274Z,99971.41
2023-03-18T06:10:37.183Z,99970.41
2023-03-18T06:13:04.427Z,99979.78
2023-03-18T06:15:32.630Z,99984.72
2023-03-18T06:18:00.317Z,99969.63
2023-03-18T06:20:28.067Z,99975.06
2023-03-18T06:22:54.952Z,99984.38
2023-03-18T06:25:24.066Z,99976.66
2023-03-18T06:27:52.391Z,99971.13
2023-03-18T06:30:22.514Z,99980.25
2023-03-18T06:32:49.879Z,99974.56
2023-03-18T06:35:17.819Z,99976.91
2023-03-18T06:37:44.754Z,99974.09
2023-03-18T06:40:12.442Z,99976.13
2023-03-18T06:42:41.347Z,99970.19
2023-03-18T06:45:25.650Z,99981.50
2023-03-18T06:48:01.044Z,99977.47
2023-03-18T06:50:28.568Z,99982.44
2023-03-18T06:52:56.111Z,99986.94
2023-03-18T06:55:28.250Z,99978.75
2023-03-18T06:57:57.025Z,99987.81
2023-03-18T07:00:34.434Z,99988.16
2023-03-18T07:03:05.282Z,99983.06
2023-03-18T07:05:33.488Z,99985.91
2023-03-18T07:08:04.121Z,99995.06
2023-03-18T07:10:32.241Z,99994.63
2023-03-18T07:13:08.744Z,99990.28
2023-03-18T07:15:38.991Z,99986.53
2023-03-18T07:18:06.673Z,99998.38
2023-03-18T07:20:34.588Z,99989.69
2023-03-18T07:23:02.147Z,99994.09
2023-03-18T07:25:31.147Z,100001.34
2023-03-18T07:28:00.402Z,99994.19
2023-03-18T07:30:28.946Z,99993.19
2023-03-18T07:32:56.003Z,99995.94
2023-03-18T07:35:23.025Z,100006.94
2023-03-18T07:37:50.188Z,99997.38
2023-03-18T07:40:18.135Z,100005.31
2023-03-18T07:42:45.127Z,100004.53
2023-03-18T07:45:12.710Z,100000.22
2023-03-18T07:47:40.075Z,100005.97
2023-03-18T07:50:07.685Z,100015.31
2023-03-18T07:52:34.718Z,100020.25
2023-03-18T07:55:01.931Z,100002.78
2023-03-18T07:57:28.966Z,100016.22
2023-03-18T07:59:56.683Z,100017.03
2023-03-18T08:02:23.716Z,100005.81
2023-03-18T08:04:51.528Z,100020.84
2023-03-18T08:07:18.729Z,100016.75
2023-03-18T08:09:45.765Z,100004.13
2023-03-18T08:12:12.908Z,99997.56
2023-03-18T08:14:39.981Z,100011.69
2023-03-18T08:17:12.747Z,100016.84
2023-03-18T08:20:00.228Z,100019.28
2023-03-18T08:22:28.141Z,100001.75
2023-03-18T08:24:55.242Z,100000.13
2023-03-18T08:27:22.473Z,100012.97
2023-03-18T08:29:50.450Z,99998.97
2023-03-18T08:32:17.673Z,100004.66
2023-03-18T08:34:44.682Z,99999.38
2023-03-18T08:37:12.199Z,99992.31
2023-03-18T08:39:39.910Z,100002.19
2023-03-18T08:42:07.053Z,100003.94
2023-03-18T08:44:34.391Z,99992.88
2023-03-18T08:47:01.526Z,99987.25
2023-03-18T08:49:28.726Z,99984.66
2023-03-18T08:51:56.668Z,99995.00
2023-03-18T08:54:23.570Z,99993.63
2023-03-18T08:56:58.231Z,99979.91
2023-03-18T08:59:25.942Z,99979.34
2023-03-18T09:01:53.364Z,99967.88
2023-03-18T09:04:20.589Z,99974.44
2023-03-18T09:06:48.986Z,99979.41
2023-03-18T09:09:16.025Z,99970.47
2023-03-18T09:11:43.217Z,99969.09
2023-03-18T09:14:10.265Z,99963.84
2023-03-18T09:16:37.742Z,99955.28
2023-03-18T09:19:04.804Z,99967.25
2023-03-18T09:21:32.022Z,99966.59
2023-03-18T09:23:59.348Z,99953.44
2023-03-18T09:26:26.464Z,99961.88
2023-03-18T09:28:53.677Z,99959.81
2023-03-18T09:31:20.963Z,99952.63
2023-03-18T09:33:48.410Z,99954.91
2023-03-18T09:36:15.791Z,99971.47
2023-03-18T09:38:42.801Z,99970.56
2023-03-18T09:41:12.895Z,99973.78
2023-03-18T09:43:45.026Z,99961.44
2023-03-18T09:46:25.181Z,99950.75
2023-03-18T09:49:10.161Z,99949.59
2023-03-18T09:51:46.925Z,99950.22
2023-03-18T09:54:31.004Z,99950.03
2023-03-18T09:56:58.838Z,99948.53
2023-03-18T09:59:42.372Z,99914.75
2023-03-18T10:02:29.773Z,99952.75
2023-03-18T10:05:01.947Z,99948.34
2023-03-18T10:07:37.843Z,99941.97
2023-03-18T10:10:28.205Z,99957.28
2023-03-18T10:13:05.105Z,99967.19
2023-03-18T10:15:34.614Z,99954.41
2023-03-18T10:18:22.234Z,99944.63
2023-03-18T10:21:01.948Z,99937.94
2023-03-18T10:23:37.805Z,99939.13
2023-03-18T10:26:13.184Z,99937.09
2023-03-18T10:29:09.027Z,99940.91
2023-03-18T10:31:48.034Z,99936.69
2023-03-18T10:34:19.430Z,99934.28
2023-03-18T10:36:58.464Z,99939.59
2023-03-18T10:39:27.887Z,99929.13
2023-03-18T10:41:58.640Z,99937.75
2023-03-18T10:44:36.923Z,99923.63
2023-03-18T10:47:22.004Z,99906.09
2023-03-18T10:50:20.866Z,99923.22
2023-03-18T10:53:23.672Z,99914.66
2023-03-18T10:55:59.887Z,99900.59
2023-03-18T10:58:29.387Z,99902.25
2023-03-18T11:00:56.945Z,99895.41
2023-03-18T11:03:41.230Z,99894.75
2023-03-18T11:06:17.036Z,99873.47
2023-03-18T11:08:48.359Z,99905.88
2023-03-18T11:11:19.668Z,99899.03
2023-03-18T11:13:53.193Z,99895.00
2023-03-18T11:16:45.247Z,99890.34
2023-03-18T11:19:30.399Z,99903.38
2023-03-18T11:22:05.360Z,99893.66
2023-03-18T11:24:36.473Z,99893.44
2023-03-18T11:27:04.360Z,99874.91
2023-03-18T11:29:34.474Z,99883.28
2023-03-18T11:32:02.265Z,99878.03
2023-03-18T11:34:35.283Z,99884.47
2023-03-18T11:37:05.264Z,99867.22
2023-03-18T11:39:37.806Z,99880.81
2023-03-18T11:42:19.011Z,99871.13
2023-03-18T11:44:46.846Z,99863.72
2023-03-18T11:47:23.134Z,99865.19
2023-03-18T11:49:50.672Z,99867.25
2023-03-18T11:52:49.986Z,99868.09
2023-03-18T11:55:35.373Z,99855.94
2023-03-18T11:58:23.501Z,99854.50
2023-03-18T12:01:17.638Z,99850.97
2023-03-18T12:04:11.094Z,99858.50
2023-03-18T12:06:47.970Z,99859.13
2023-03-18T12:09:15.555Z,99856.16
2023-03-18T12:11:51.117Z,99849.88
2023-03-18T12:14:42.410Z,99841.81
2023-03-18T12:17:31.205Z,99833.28
2023-03-18T12:20:13.701Z,99846.06
2023-03-18T12:22:53.047Z,99842.19
2023-03-18T12:25:37.194Z,99842.78
2023-03-18T12:28:36.285Z,99836.97
2023-03-18T12:31:42.290Z,99838.22
2023-03-18T12:34:48.511Z,99840.41
2023-03-18T12:37:32.554Z,99836.53
2023-03-18T12:40:02.768Z,99846.19
2023-03-18T12:42:39.163Z,99844.41
2023-03-18T12:45:13.154Z,99844.03
2023-03-18T12:47:50.983Z,99844.56
2023-03-18T12:50:47.712Z,99841.06
2023-03-18T12:53:22.495Z,99837.06
2023-03-18T12:55:57.977Z,99842.38
2023-03-18T12:58:39.125Z,99832.16
2023-03-18T13:01:18.006Z,99830.81
2023-03-18T13:03:56.117Z,99825.69
2023-03-18T13:06:44.436Z,99822.94
2023-03-18T13:09:22.158Z,99826.84
2023-03-18T13:12:10.342Z,99826.06
2023-03-18T13:15:05.867Z,99821.13
2023-03-18T13:17:38.831Z,99823.81
2023-03-18T13:20:38.143Z,99817.06
2023-03-18T13:23:16.390Z,99819.72
2023-03-18T13:25:49.674Z,99816.91
2023-03-18T13:28:41.580Z,99816.22
2023-03-18T13:31:29.976Z,99807.34
2023-03-18T13:34:31.781Z,99787.94
2023-03-18T13:37:10.919Z,99814.59
2023-03-18T13:39:56.777Z,99816.09
2023-03-18T13:42:33.807Z,99814.06
2023-03-18T13:45:09.625Z,99823.97
2023-03-18T13:47:39.068Z,99812.53
2023-03-18T13:50:21.342Z,99810.66
2023-03-18T13:52:49.745Z,99800.13
2023-03-18T13:55:42.852Z,99811.16
2023-03-18T13:58:18.950Z,99815.38
2023-03-18T14:00:54.917Z,99813.41
2023-03-18T14:03:26.967Z,99805.22
2023-03-18T14:06:17.253Z,99788.88
2023-03-18T14:08:50.672Z,99806.22
2023-03-18T14:11:17.590Z,99805.44
2023-03-18T14:13:50.866Z,99789.94
2023-03-18T14:16:30.042Z,99791.97
2023-03-18T14:19:03.612Z,99799.84
2023-03-18T14:21:32.963Z,99793.19
2023-03-18T14:24:11.964Z,99793.66
2023-03-18T14:26:39.857Z,99797.91
2023-03-18T14:29:06.898Z,99794.22
2023-03-18T14:31:51.082Z,99789.72
2023-03-18T14:34:17.924Z,99801.63
2023-03-18T14:36:54.010Z,99801.88
2023-03-18T14:39:32.867Z,99805.78
2023-03-18T14:42:03.210Z,99805.69
2023-03-18T14:44:49.472Z,99794.50
2023-03-18T14:47:38.082Z,99800.75
2023-03-18T14:50:14.319Z,99798.31
2023-03-18T14:52:45.213Z,99802.50
2023-03-18T14:55:26.009Z,99815.75
2023-03-18T14:57:52.946Z,99825.75
2023-03-18T15:00:22.378Z,99825.16
2023-03-18T15:03:08.492Z,99840.75
2023-03-18T15:05:42.313Z,99828.78
2023-03-18T15:08:19.588Z,99749.94
2023-03-18T15:10:49.916Z,99846.72
2023-03-18T15:13:20.178Z,99835.50
2023-03-18T15:15:47.614Z,99842.94
2023-03-18T15:18:44.597Z,99852.00
2023-03-18T15:21:23.822Z,99844.19
2023-03-18T15:23:53.494Z,99841.50
2023-03-18T15:26:31.349Z,99859.72
2023-03-18T15:29:00.570Z,99859.47
2023-03-18T15:31:54.359Z,99870.97
2023-03-18T15:34:30.802Z,99786.03
2023-03-18T15:37:01.034Z,99878.00
2023-03-18T15:39:32.274Z,99879.94
2023-03-18T15:42:06.428Z,99883.31
2023-03-18T15:44:39.186Z,99885.31
2023-03-18T15:47:15.599Z,99891.97
2023-03-18T15:49:58.746Z,99902.06
2023-03-18T15:52:30.966Z,99903.81
2023-03-18T15:54:58.014Z,99894.53
2023-03-18T15:57:38.362Z,99889.97
2023-03-18T16:00:09.230Z,99914.97
2023-03-18T16:02:39.328Z,99900.19
2023-03-18T16:05:26.669Z,99920.47
2023-03-18T16:07:54.105Z,99918.34
2023-03-18T16:10:23.904Z,99926.00
2023-03-18T16:12:55.191Z,99919.25
2023-03-18T16:15:25.417Z,99920.06
2023-03-18T16:17:54.153Z,99923.44
2023-03-18T16:20:28.448Z,99922.59
2023-03-18T16:22:56.741Z,99933.63
2023-03-18T16:25:27.019Z,99928.41
2023-03-18T16:27:56.793Z,99946.56
2023-03-18T16:30:26.251Z,99951.47
2023-03-18T16:32:54.773Z,99951.81
2023-03-18T16:35:24.723Z,99942.00
2023-03-18T16:37:53.293Z,99960.38
2023-03-18T16:40:23.248Z,99959.88
2023-03-18T16:42:51.181Z,99960.72
2023-03-18T16:45:21.188Z,99957.81
2023-03-18T16:47:51.398Z,99965.72
2023-03-18T16:50:29.594Z,99966.56
2023-03-18T16:52:57.290Z,99949.63
2023-03-18T16:55:25.408Z,99961.09
2023-03-18T16:57:58.323Z,99966.59
2023-03-18T17:00:32.036Z,99973.72
2023-03-18T17:03:00.037Z,99972.13
2023-03-18T17:05:28.001Z,99968.84
2023-03-18T17:07:55.933Z,99978.94
2023-03-18T17:10:26.066Z,99983.06
2023-03-18T17:12:59.490Z,99983.06
2023-03-18T17:15:32.038Z,99987.22
2023-03-18T17:17:59.909Z,99986.66
2023-03-18T17:20:29.573Z,99987.22
2023-03-18T17:22:56.454Z,99973.84
2023-03-18T17:25:27.160Z,100005.84
2023-03-18T17:27:57.199Z,99995.50
2023-03-18T17:30:38.287Z,99982.69
2023-03-18T17:33:21.571Z,99984.88
2023-03-18T17:35:48.745Z,99996.63
2023-03-18T17:38:15.878Z,100001.81
2023-03-18T17:40:43.287Z,99995.50
2023-03-18T17:43:31.825Z,99997.16
2023-03-18T17:46:00.720Z,99999.06
2023-03-18T17:48:32.941Z,99994.94
2023-03-18T17:51:21.409Z,99988.69
2023-03-18T17:53:51.408Z,100000.16
2023-03-18T17:56:19.502Z,100008.91
2023-03-18T17:58:52.095Z,100005.63
2023-03-18T18:01:23.347Z,99998.81
2023-03-18T18:03:50.568Z,100010.06
2023-03-18T18:06:19.068Z,100010.06
2023-03-18T18:08:47.554Z,100015.53
2023-03-18T18:11:25.278Z,100015.53
2023-03-18T18:13:56.245Z,100014.16
2023-03-18T18:16:24.293Z,100007.34
2023-03-18T18:18:51.131Z,100013.09
2023-03-18T18:21:21.693Z,100019.38
2023-03-18T18:23:49.164Z,100021.59
2023-03-18T18:26:18.671Z,100020.00
2023-03-18T18:28:51.247Z,100012.91
2023-03-18T18:31:22.840Z,100020.00
2023-03-18T18:33:50.646Z,100028.22
2023-03-18T18:36:22.682Z,100019.47
2023-03-18T18:38:49.818Z,100025.22
2023-03-18T18:41:16.911Z,100023.31
2023-03-18T18:43:43.813Z,100017.28
2023-03-18T18:46:14.948Z,100020.56
2023-03-18T18:48:43.840Z,100026.06
2023-03-18T18:51:16.872Z,100025.50
2023-03-18T18:53:45.249Z,100026.59
2023-03-18T18:56:29.295Z,100023.88
2023-03-18T18:58:56.844Z,100031.25
2023-03-18T19:01:23.841Z,100032.34
2023-03-18T19:03:51.001Z,100037.28
2023-03-18T19:06:27.996Z,100037.81
2023-03-18T19:08:57.812Z,100047.13
2023-03-18T19:11:26.166Z,100039.19
2023-03-18T19:14:14.603Z,100037.28
2023-03-18T19:16:41.941Z,100041.09
2023-03-18T19:19:13.832Z,100036.47
2023-03-18T19:21:41.020Z,100031.25
2023-03-18T19:24:26.461Z,100046.84
2023-03-18T19:26:55.965Z,100031.00
2023-03-18T19:29:23.052Z,100041.94
2023-03-18T19:31:50.432Z,100046.59
2023-03-18T19:34:19.321Z,100043.56
2023-03-18T19:36:53.133Z,100034.25
2023-03-18T19:39:22.668Z,100045.75
2023-03-18T19:41:51.371Z,100043.03
2023-03-18T19:44:23.589Z,100038.38
2023-03-18T19:46:53.052Z,100043.03
2023-03-18T19:49:33.469Z,100043.84
2023-03-18T19:52:01.152Z,100048.78
2023-03-18T19:54:34.276Z,100050.69
2023-03-18T19:57:16.291Z,100040.28
2023-03-18T19:59:44.864Z,100038.66
2023-03-18T20:02:22.545Z,100045.75
2023-03-18T20:04:52.120Z,100047.13
2023-03-18T20:07:21.203Z,100037.56
2023-03-18T20:09:49.048Z,100052.31
2023-03-18T20:12:26.407Z,100044.13
2023-03-18T20:14:53.467Z,100015.66
2023-03-18T20:17:34.334Z,100041.66
2023-03-18T20:20:01.352Z,100028.53
2023-03-18T20:22:36.595Z,100024.97
2023-03-18T20:25:05.556Z,100021.41
2023-03-18T20:27:32.456Z,100022.50
2023-03-18T20:29:59.617Z,100026.88
2023-03-18T20:32:27.160Z,100017.31
2023-03-18T20:34:54.108Z,100021.97
2023-03-18T20:37:24.353Z,100035.63
2023-03-18T20:39:52.311Z,100022.22
2023-03-18T20:42:19.447Z,100026.59
2023-03-18T20:44:46.495Z,100008.56
2023-03-18T20:47:13.766Z,100017.59
2023-03-18T20:49:44.560Z,100012.09
2023-03-18T20:52:26.060Z,100024.69
2023-03-18T20:54:53.694Z,100020.03
2023-03-18T20:57:21.139Z,100015.94
2023-03-18T20:59:48.500Z,100009.66
2023-03-18T21:02:31.693Z,100017.56
2023-03-18T21:05:01.648Z,100021.69
2023-03-18T21:07:29.334Z,100007.47
2023-03-18T21:09:56.307Z,100011.84
2023-03-18T21:12:24.160Z,100001.16
2023-03-18T21:14:52.506Z,100004.19
2023-03-18T21:17:28.852Z,99992.69
2023-03-18T21:20:05.046Z,100008.56
2023-03-18T21:22:38.943Z,99998.16
2023-03-18T21:25:08.844Z,100008.81
2023-03-18T21:27:37.069Z,100006.09
2023-03-18T21:30:09.757Z,99997.59
2023-03-18T21:32:41.126Z,100009.09
2023-03-18T21:35:14.856Z,100005.81
2023-03-18T21:37:41.758Z,99989.13
2023-03-18T21:40:18.633Z,100004.19
2023-03-18T21:42:46.575Z,99986.16
2023-03-18T21:45:17.030Z,99998.69
2023-03-18T21:47:44.321Z,100000.06
2023-03-18T21:50:20.055Z,99997.88
2023-03-18T21:52:47.998Z,100000.34
2023-03-18T21:55:15.938Z,99987.22
2023-03-18T21:57:43.484Z,99993.78
2023-03-18T22:00:20.831Z,99994.88
2023-03-18T22:02:48.082Z,99989.94
2023-03-18T22:05:24.662Z,99982.28
2023-03-18T22:07:52.071Z,99989.13
2023-03-18T22:10:22.706Z,99977.09
2023-03-18T22:12:50.583Z,99981.75
2023-03-18T22:15:20.610Z,99986.38
2023-03-18T22:17:47.891Z,99980.66
2023-03-18T22:20:14.837Z,99980.94
2023-03-18T22:22:41.659Z,99989.13
2023-03-18T22:25:26.284Z,99972.44
2023-03-18T22:27:53.124Z,99987.75
2023-03-18T22:30:20.279Z,99995.41
2023-03-18T22:32:48.016Z,99992.13
2023-03-18T22:35:20.969Z,99997.06
2023-03-18T22:37:48.384Z,99992.94
2023-03-18T22:40:19.134Z,99986.94
2023-03-18T22:42:48.824Z,99994.06
2023-03-18T22:45:24.701Z,99989.94
2023-03-18T22:47:53.580Z,99992.13
2023-03-18T22:50:21.309Z,99971.34
2023-03-18T22:52:50.187Z,99989.94
2023-03-18T22:55:19.291Z,99992.13
2023-03-18T22:57:46.303Z,99992.41
2023-03-18T23:00:26.005Z,99999.78
2023-03-18T23:02:54.212Z,99993.50
2023-03-18T23:05:23.774Z,99982.81
2023-03-18T23:07:51.443Z,99987.75
2023-03-18T23:10:20.138Z,99992.13
2023-03-18T23:12:48.565Z,99992.94
2023-03-18T23:15:18.461Z,99989.38
2023-03-18T23:17:46.029Z,99981.16
2023-03-18T23:20:15.072Z,99989.09
2023-03-18T23:22:42.549Z,99992.91
2023-03-18T23:25:18.018Z,99994.28
2023-03-18T23:27:45.625Z,99981.69
2023-03-18T23:30:14.719Z,99972.66
2023-03-18T23:32:41.893Z,99994.81
2023-03-18T23:35:09.688Z,99984.72
2023-03-18T23:37:36.599Z,99989.38
2023-03-18T23:40:05.425Z,99992.94
2023-03-18T23:42:32.508Z,100006.91
2023-03-18T23:44:59.456Z,100014.28
2023-03-18T23:47:26.428Z,99998.41
2023-03-18T23:49:53.535Z,99991.84
2023-03-18T23:52:20.737Z,99999.50
2023-03-18T23:54:47.954Z,99992.66
2023-03-18T23:57:14.837Z,99992.94
2023-03-18T23:59:42.162Z,99990.47
